createdAt,value
2018-01-19T00:01:32.703Z,96134
2018-01-19T00:04:01.086Z,96144
2018-01-19T00:06:29.457Z,96155
2018-01-19T00:08:57.800Z,96171
2018-01-19T00:11:26.201Z,96180
2018-01-19T00:13:54.575Z,96181
2018-01-19T00:16:22.913Z,96192
2018-01-19T00:18:51.260Z,96192
2018-01-19T00:21:19.569Z,96185
2018-01-19T00:23:47.880Z,96186
2018-01-19T00:26:16.241Z,96177
2018-01-19T00:28:44.566Z,96170
2018-01-19T00:31:12.897Z,96148
2018-01-19T00:33:41.252Z,96140
2018-01-19T00:36:09.560Z,96149
2018-01-19T00:38:37.875Z,96141
2018-01-19T00:41:06.249Z,96138
2018-01-19T00:43:34.573Z,96138
2018-01-19T00:46:02.940Z,96150
2018-01-19T00:48:31.262Z,96153
2018-01-19T00:50:59.594Z,96168
2018-01-19T00:53:27.923Z,96186
2018-01-19T00:55:56.274Z,96197
2018-01-19T00:58:24.644Z,96204
2018-01-19T01:00:52.947Z,96214
2018-01-19T01:03:21.317Z,96216
2018-01-19T01:05:49.665Z,96227
2018-01-19T01:08:18.019Z,96241
2018-01-19T01:10:46.431Z,96240
2018-01-19T01:13:14.750Z,96244
2018-01-19T01:15:43.093Z,96270
2018-01-19T01:18:11.444Z,96292
2018-01-19T01:20:39.796Z,96279
2018-01-19T01:23:08.136Z,96244
2018-01-19T01:25:36.497Z,96227
2018-01-19T01:28:04.801Z,96238
2018-01-19T01:30:33.124Z,96229
2018-01-19T01:33:01.501Z,96221
2018-01-19T01:35:29.856Z,96265
2018-01-19T01:37:58.193Z,96272
2018-01-19T01:40:26.539Z,96294
2018-01-19T01:42:54.886Z,96272
2018-01-19T01:45:23.229Z,96244
2018-01-19T01:47:51.587Z,96233
2018-01-19T01:50:19.911Z,96248
2018-01-19T01:52:48.281Z,96270
2018-01-19T01:55:16.658Z,96277
2018-01-19T01:57:44.981Z,96267
2018-01-19T02:00:13.301Z,96262
2018-01-19T02:02:41.650Z,96272
2018-01-19T02:05:09.963Z,96264
2018-01-19T02:07:38.326Z,96253
2018-01-19T02:10:06.737Z,96249
2018-01-19T02:12:35.044Z,96236
2018-01-19T02:15:03.388Z,96241
2018-01-19T02:17:31.751Z,96260
2018-01-19T02:20:00.128Z,96280
2018-01-19T02:22:28.459Z,96265
2018-01-19T02:24:56.804Z,96248
2018-01-19T02:27:25.137Z,96238
2018-01-19T02:29:53.477Z,96243
2018-01-19T02:32:21.827Z,96256
2018-01-19T02:34:50.186Z,96281
2018-01-19T02:37:18.490Z,96277
2018-01-19T02:39:46.874Z,96282
2018-01-19T02:42:15.268Z,96280
2018-01-19T02:44:43.593Z,96274
2018-01-19T02:47:12.003Z,96270
2018-01-19T02:49:40.312Z,96261
2018-01-19T02:52:08.631Z,96259
2018-01-19T02:54:36.997Z,96263
2018-01-19T02:57:05.320Z,96263
2018-01-19T02:59:33.662Z,96256
2018-01-19T03:02:01.998Z,96261
2018-01-19T03:04:30.375Z,96273
2018-01-19T03:06:58.696Z,96273
2018-01-19T03:09:27.065Z,96277
2018-01-19T03:11:55.406Z,96286
2018-01-19T03:14:23.729Z,96293
2018-01-19T03:16:52.160Z,96312
2018-01-19T03:19:20.518Z,96312
2018-01-19T03:21:48.840Z,96307
2018-01-19T03:24:17.194Z,96306
2018-01-19T03:26:45.517Z,96321
2018-01-19T03:29:13.847Z,96328
2018-01-19T03:31:42.283Z,96347
2018-01-19T03:34:10.604Z,96338
2018-01-19T03:36:38.938Z,96343
2018-01-19T03:39:07.316Z,96337
2018-01-19T03:41:35.653Z,96332
2018-01-19T03:44:03.974Z,96333
2018-01-19T03:46:32.358Z,96343
2018-01-19T03:49:00.664Z,96351
2018-01-19T03:51:28.988Z,96365
2018-01-19T03:53:57.363Z,96379
2018-01-19T03:56:25.682Z,96383
2018-01-19T03:58:54.058Z,96392
2018-01-19T04:01:22.414Z,96394
2018-01-19T04:03:50.740Z,96403
2018-01-19T04:06:19.064Z,96409
2018-01-19T04:08:47.423Z,96408
2018-01-19T04:11:15.771Z,96403
2018-01-19T04:13:44.077Z,96403
2018-01-19T04:16:12.492Z,96411
2018-01-19T04:18:40.830Z,96411
2018-01-19T04:21:09.161Z,96410
2018-01-19T04:23:37.489Z,96400
2018-01-19T04:26:05.827Z,96387
2018-01-19T04:28:34.148Z,96380
2018-01-19T04:31:02.506Z,96368
2018-01-19T04:33:30.834Z,96355
2018-01-19T04:35:59.162Z,96348
2018-01-19T04:38:27.560Z,96328
2018-01-19T04:40:55.926Z,96339
2018-01-19T04:43:24.251Z,96346
2018-01-19T04:45:52.647Z,96352
2018-01-19T04:48:21.006Z,96367
2018-01-19T04:50:49.332Z,96373
2018-01-19T04:53:17.688Z,96382
2018-01-19T04:55:46.018Z,96392
2018-01-19T04:58:14.386Z,96382
2018-01-19T05:00:42.761Z,96387
2018-01-19T05:03:11.108Z,96394
2018-01-19T05:05:39.453Z,96385
2018-01-19T05:08:07.780Z,96375
2018-01-19T05:10:36.139Z,96364
2018-01-19T05:13:04.452Z,96358
2018-01-19T05:15:32.804Z,96368
2018-01-19T05:18:01.126Z,96359
2018-01-19T05:20:29.441Z,96384
2018-01-19T05:22:57.800Z,96400
2018-01-19T05:25:26.125Z,96404
2018-01-19T05:27:54.459Z,96384
2018-01-19T05:30:22.878Z,96384
2018-01-19T05:32:51.264Z,96390
2018-01-19T05:35:19.606Z,96385
2018-01-19T05:37:47.989Z,96375
2018-01-19T05:40:16.342Z,96372
2018-01-19T05:42:44.690Z,96360
2018-01-19T05:45:13.052Z,96344
2018-01-19T05:47:41.420Z,96350
2018-01-19T05:50:09.754Z,96361
2018-01-19T05:52:38.094Z,96370
2018-01-19T05:55:06.427Z,96367
2018-01-19T05:57:34.775Z,96367
2018-01-19T06:00:03.158Z,96363
2018-01-19T06:02:31.487Z,96359
2018-01-19T06:04:59.827Z,96349
2018-01-19T06:07:28.177Z,96340
2018-01-19T06:09:56.529Z,96340
2018-01-19T06:12:24.872Z,96345
2018-01-19T06:14:53.229Z,96343
2018-01-19T06:17:21.583Z,96347
2018-01-19T06:19:49.935Z,96357
2018-01-19T06:22:18.270Z,96345
2018-01-19T06:24:46.628Z,96338
2018-01-19T06:27:14.968Z,96352
2018-01-19T06:29:43.325Z,96357
2018-01-19T06:32:11.663Z,96355
2018-01-19T06:34:39.982Z,96354
2018-01-19T06:37:08.320Z,96353
2018-01-19T06:39:36.773Z,96341
2018-01-19T06:42:05.082Z,96351
2018-01-19T06:44:33.425Z,96345
2018-01-19T06:47:01.744Z,96351
2018-01-19T06:49:30.131Z,96355
2018-01-19T06:51:58.486Z,96356
2018-01-19T06:54:26.810Z,96349
2018-01-19T06:56:55.200Z,96354
2018-01-19T06:59:23.653Z,96359
2018-01-19T07:01:52.008Z,96368
2018-01-19T07:04:20.341Z,96361
2018-01-19T07:06:48.686Z,96368
2018-01-19T07:09:17.028Z,96374
2018-01-19T07:11:45.353Z,96375
2018-01-19T07:14:13.734Z,96373
2018-01-19T07:16:42.077Z,96376
2018-01-19T07:19:10.428Z,96374
2018-01-19T07:21:38.790Z,96371
2018-01-19T07:24:07.271Z,96380
2018-01-19T07:26:35.606Z,96379
2018-01-19T07:29:12.522Z,96384
2018-01-19T07:31:42.931Z,96391
2018-01-19T07:34:11.253Z,96396
2018-01-19T07:36:39.609Z,96395
2018-01-19T07:39:07.993Z,96398
2018-01-19T07:41:36.292Z,96397
2018-01-19T07:44:04.647Z,96393
2018-01-19T07:46:32.958Z,96396
2018-01-19T07:49:01.331Z,96392
2018-01-19T07:51:29.702Z,96396
2018-01-19T07:53:58.066Z,96397
2018-01-19T07:56:26.394Z,96404
2018-01-19T07:58:54.747Z,96410
2018-01-19T08:01:23.080Z,96407
2018-01-19T08:03:51.413Z,96410
2018-01-19T08:06:19.780Z,96414
2018-01-19T08:08:48.120Z,96407
2018-01-19T08:11:16.452Z,96422
2018-01-19T08:13:44.818Z,96427
2018-01-19T08:16:13.143Z,96432
2018-01-19T08:18:41.494Z,96434
2018-01-19T08:21:09.925Z,96436
2018-01-19T08:23:38.322Z,96429
2018-01-19T08:26:06.636Z,96422
2018-01-19T08:28:34.989Z,96420
2018-01-19T08:31:04.399Z,96425
2018-01-19T08:33:32.794Z,96422
2018-01-19T08:36:01.202Z,96424
2018-01-19T08:38:29.530Z,96425
2018-01-19T08:40:57.903Z,96422
2018-01-19T08:43:26.273Z,96433
2018-01-19T08:45:54.606Z,96425
2018-01-19T08:48:22.936Z,96422
2018-01-19T08:50:51.282Z,96425
2018-01-19T08:53:19.630Z,96435
2018-01-19T08:55:47.956Z,96444
2018-01-19T08:58:16.332Z,96447
2018-01-19T09:00:48.013Z,96458
2018-01-19T09:03:28.499Z,96456
2018-01-19T09:05:56.861Z,96467
2018-01-19T09:08:25.195Z,96471
2018-01-19T09:10:53.541Z,96485
2018-01-19T09:13:21.883Z,96481
2018-01-19T09:15:50.246Z,96496
2018-01-19T09:18:18.661Z,96491
2018-01-19T09:20:47.048Z,96488
2018-01-19T09:23:15.377Z,96495
2018-01-19T09:25:43.758Z,96480
2018-01-19T09:28:12.120Z,96485
2018-01-19T09:30:40.458Z,96489
2018-01-19T09:33:08.835Z,96485
2018-01-19T09:35:37.205Z,96486
2018-01-19T09:38:05.561Z,96489
2018-01-19T09:40:33.986Z,96483
2018-01-19T09:43:02.309Z,96497
2018-01-19T09:45:30.657Z,96502
2018-01-19T09:47:59.009Z,96498
2018-01-19T09:50:27.401Z,96491
2018-01-19T09:52:55.754Z,96491
2018-01-19T09:55:24.130Z,96496
2018-01-19T09:57:52.460Z,96513
2018-01-19T10:00:20.785Z,96518
2018-01-19T10:02:49.147Z,96525
2018-01-19T10:05:17.534Z,96540
2018-01-19T10:07:45.889Z,96552
2018-01-19T10:10:14.260Z,96554
2018-01-19T10:12:42.622Z,96556
2018-01-19T10:15:11.014Z,96565
2018-01-19T10:17:39.365Z,96557
2018-01-19T10:20:07.709Z,96561
2018-01-19T10:22:36.136Z,96571
2018-01-19T10:25:04.570Z,96568
2018-01-19T10:27:32.967Z,96576
2018-01-19T10:30:01.329Z,96583
2018-01-19T10:32:29.729Z,96580
2018-01-19T10:34:58.071Z,96568
2018-01-19T10:37:26.430Z,96567
2018-01-19T10:40:14.975Z,96577
2018-01-19T10:42:43.323Z,96576
2018-01-19T10:45:18.506Z,96573
2018-01-19T10:47:46.861Z,96579
2018-01-19T10:50:15.078Z,96587
2018-01-19T10:52:41.896Z,96586
2018-01-19T10:55:12.369Z,96596
2018-01-19T10:57:39.054Z,96602
2018-01-19T11:00:06.875Z,96615
2018-01-19T11:02:33.573Z,96608
2018-01-19T11:05:00.278Z,96605
2018-01-19T11:07:27.765Z,96606
2018-01-19T11:09:54.478Z,96617
2018-01-19T11:12:21.954Z,96621
2018-01-19T11:14:48.733Z,96614
2018-01-19T11:17:15.491Z,96606
2018-01-19T11:19:42.269Z,96599
2018-01-19T11:22:09.052Z,96595
2018-01-19T11:24:35.820Z,96595
2018-01-19T11:27:02.520Z,96589
2018-01-19T11:29:30.024Z,96599
2018-01-19T11:31:56.732Z,96605
2018-01-19T11:34:24.314Z,96609
2018-01-19T11:36:51.073Z,96610
2018-01-19T11:39:17.771Z,96617
2018-01-19T11:41:45.234Z,96611
2018-01-19T11:44:12.709Z,96599
2018-01-19T11:46:39.474Z,96598
2018-01-19T11:49:06.204Z,96604
2018-01-19T11:51:33.658Z,96594
2018-01-19T11:54:00.342Z,96584
2018-01-19T11:56:27.080Z,96581
2018-01-19T11:58:53.910Z,96573
2018-01-19T12:01:20.666Z,96573
2018-01-19T12:03:47.395Z,96562
2018-01-19T12:06:14.127Z,96555
2018-01-19T12:08:40.913Z,96548
2018-01-19T12:11:07.646Z,96554
2018-01-19T12:13:34.410Z,96552
2018-01-19T12:16:01.151Z,96548
2018-01-19T12:18:27.858Z,96551
2018-01-19T12:20:54.627Z,96551
2018-01-19T12:23:21.300Z,96549
2018-01-19T12:25:48.006Z,96544
2018-01-19T12:28:14.701Z,96544
2018-01-19T12:30:42.132Z,96536
2018-01-19T12:33:08.803Z,96536
2018-01-19T12:35:36.258Z,96528
2018-01-19T12:38:03.024Z,96536
2018-01-19T12:40:30.468Z,96531
2018-01-19T12:42:57.949Z,96530
2018-01-19T12:45:25.728Z,96522
2018-01-19T12:47:52.414Z,96511
2018-01-19T12:50:19.117Z,96517
2018-01-19T12:52:45.929Z,96509
2018-01-19T12:55:13.377Z,96526
2018-01-19T12:57:40.092Z,96539
2018-01-19T13:00:06.877Z,96548
2018-01-19T13:02:34.327Z,96547
2018-01-19T13:05:00.997Z,96544
2018-01-19T13:07:27.673Z,96549
2018-01-19T13:09:54.329Z,96559
2018-01-19T13:12:21.058Z,96567
2018-01-19T13:14:47.751Z,96568
2018-01-19T13:17:14.494Z,96563
2018-01-19T13:19:41.165Z,96569
2018-01-19T13:22:07.872Z,96554
2018-01-19T13:24:34.593Z,96545
2018-01-19T13:27:01.307Z,96538
2018-01-19T13:29:28.023Z,96540
2018-01-19T13:31:54.680Z,96544
2018-01-19T13:34:21.407Z,96543
2018-01-19T13:36:48.864Z,96551
2018-01-19T13:39:16.298Z,96557
2018-01-19T13:41:43.064Z,96556
2018-01-19T13:44:11.378Z,96551
2018-01-19T13:46:39.701Z,96549
2018-01-19T13:49:08.097Z,96560
2018-01-19T13:51:36.432Z,96573
2018-01-19T13:54:04.785Z,96578
2018-01-19T13:56:33.184Z,96578
2018-01-19T13:59:01.522Z,96582
2018-01-19T14:01:29.850Z,96598
2018-01-19T14:03:58.233Z,96606
2018-01-19T14:06:26.547Z,96600
2018-01-19T14:08:54.880Z,96599
2018-01-19T14:11:23.257Z,96609
2018-01-19T14:13:51.628Z,96598
2018-01-19T14:16:19.932Z,96612
2018-01-19T14:18:48.301Z,96628
2018-01-19T14:21:16.620Z,96637
2018-01-19T14:23:45.023Z,96641
2018-01-19T14:26:13.398Z,96644
2018-01-19T14:28:41.740Z,96658
2018-01-19T14:31:10.094Z,96656
2018-01-19T14:33:38.544Z,96656
2018-01-19T14:36:06.909Z,96638
2018-01-19T14:38:35.248Z,96647
2018-01-19T14:41:03.595Z,96662
2018-01-19T14:43:31.925Z,96667
2018-01-19T14:46:00.226Z,96668
2018-01-19T14:48:28.576Z,96662
2018-01-19T14:50:56.892Z,96664
2018-01-19T14:53:26.233Z,96668
2018-01-19T14:55:54.746Z,96663
2018-01-19T14:58:23.055Z,96657
2018-01-19T15:00:51.433Z,96648
2018-01-19T15:03:19.807Z,96644
2018-01-19T15:05:48.154Z,96649
2018-01-19T15:08:16.511Z,96655
2018-01-19T15:10:44.926Z,96660
2018-01-19T15:13:13.258Z,96659
2018-01-19T15:15:41.605Z,96667
2018-01-19T15:18:09.960Z,96663
2018-01-19T15:20:38.306Z,96663
2018-01-19T15:23:06.769Z,96663
2018-01-19T15:25:35.145Z,96652
2018-01-19T15:28:03.447Z,96656
2018-01-19T15:30:31.817Z,96652
2018-01-19T15:33:00.301Z,96651
2018-01-19T15:35:28.662Z,96663
2018-01-19T15:37:57.137Z,96654
2018-01-19T15:40:25.487Z,96659
2018-01-19T15:42:53.840Z,96672
2018-01-19T15:45:22.205Z,96665
2018-01-19T15:47:50.580Z,96664
2018-01-19T15:50:18.970Z,96671
2018-01-19T15:52:47.311Z,96683
2018-01-19T15:55:15.670Z,96692
2018-01-19T15:57:44.006Z,96702
2018-01-19T16:00:12.361Z,96699
2018-01-19T16:02:40.761Z,96706
2018-01-19T16:05:09.092Z,96714
2018-01-19T16:07:37.394Z,96726
2018-01-19T16:10:05.797Z,96714
2018-01-19T16:12:34.133Z,96717
2018-01-19T16:15:02.507Z,96711
2018-01-19T16:17:30.841Z,96724
2018-01-19T16:19:59.171Z,96712
2018-01-19T16:22:27.497Z,96723
2018-01-19T16:24:55.831Z,96731
2018-01-19T16:27:24.176Z,96726
2018-01-19T16:29:52.594Z,96743
2018-01-19T16:32:20.953Z,96748
2018-01-19T16:34:49.285Z,96752
2018-01-19T16:37:17.709Z,96749
2018-01-19T16:39:46.089Z,96764
2018-01-19T16:42:14.427Z,96770
2018-01-19T16:44:42.845Z,96766
2018-01-19T16:47:11.279Z,96773
2018-01-19T16:49:39.671Z,96773
2018-01-19T16:52:08.005Z,96779
2018-01-19T16:54:36.340Z,96777
2018-01-19T16:57:04.666Z,96786
2018-01-19T16:59:33.016Z,96791
2018-01-19T17:02:01.405Z,96781
2018-01-19T17:04:29.909Z,96790
2018-01-19T17:06:58.242Z,96785
2018-01-19T17:09:26.594Z,96782
2018-01-19T17:11:54.960Z,96778
2018-01-19T17:14:23.304Z,96791
2018-01-19T17:16:51.690Z,96792
2018-01-19T17:19:20.079Z,96803
2018-01-19T17:21:48.401Z,96806
2018-01-19T17:24:16.741Z,96805
2018-01-19T17:26:45.080Z,96809
2018-01-19T17:29:13.408Z,96807
2018-01-19T17:31:41.844Z,96810
2018-01-19T17:34:10.149Z,96823
2018-01-19T17:36:38.507Z,96832
2018-01-19T17:39:06.906Z,96831
2018-01-19T17:41:35.279Z,96828
2018-01-19T17:44:03.730Z,96824
2018-01-19T17:46:32.098Z,96830
2018-01-19T17:49:00.418Z,96838
2018-01-19T17:51:28.783Z,96839
2018-01-19T17:53:57.134Z,96847
2018-01-19T17:56:25.431Z,96852
2018-01-19T17:58:53.820Z,96858
2018-01-19T18:01:22.195Z,96850
2018-01-19T18:03:50.545Z,96852
2018-01-19T18:06:18.881Z,96864
2018-01-19T18:08:47.313Z,96876
2018-01-19T18:11:15.720Z,96884
2018-01-19T18:13:44.052Z,96889
2018-01-19T18:16:12.439Z,96891
2018-01-19T18:18:40.775Z,96883
2018-01-19T18:21:09.185Z,96883
2018-01-19T18:23:37.533Z,96884
2018-01-19T18:26:05.852Z,96889
2018-01-19T18:28:34.193Z,96892
2018-01-19T18:31:02.627Z,96890
2018-01-19T18:33:31.007Z,96884
2018-01-19T18:35:59.353Z,96891
2018-01-19T18:38:27.693Z,96886
2018-01-19T18:40:56.003Z,96898
2018-01-19T18:43:24.346Z,96901
2018-01-19T18:45:52.693Z,96902
2018-01-19T18:48:21.053Z,96905
2018-01-19T18:50:49.380Z,96898
2018-01-19T18:53:17.783Z,96905
2018-01-19T18:55:46.102Z,96911
2018-01-19T18:58:14.468Z,96909
2018-01-19T19:00:42.804Z,96917
2018-01-19T19:03:11.152Z,96921
2018-01-19T19:05:39.495Z,96922
2018-01-19T19:08:07.897Z,96922
2018-01-19T19:10:36.218Z,96928
2018-01-19T19:13:04.581Z,96939
2018-01-19T19:15:32.969Z,96935
2018-01-19T19:18:01.913Z,96944
2018-01-19T19:20:30.338Z,96946
2018-01-19T19:22:58.721Z,96947
2018-01-19T19:25:27.088Z,96954
2018-01-19T19:27:55.441Z,96959
2018-01-19T19:30:23.786Z,96963
2018-01-19T19:32:52.166Z,96969
2018-01-19T19:35:20.513Z,96982
2018-01-19T19:37:48.899Z,96981
2018-01-19T19:40:17.218Z,96991
2018-01-19T19:42:45.582Z,96994
2018-01-19T19:45:13.969Z,96996
2018-01-19T19:47:42.338Z,96996
2018-01-19T19:50:10.674Z,96992
2018-01-19T19:52:39.004Z,96983
2018-01-19T19:55:07.593Z,96985
2018-01-19T19:57:36.097Z,96989
2018-01-19T20:00:04.663Z,96989
2018-01-19T20:02:33.224Z,96982
2018-01-19T20:05:01.606Z,96995
2018-01-19T20:07:29.944Z,97006
2018-01-19T20:09:58.378Z,97001
2018-01-19T20:12:26.773Z,97004
2018-01-19T20:14:55.180Z,97003
2018-01-19T20:17:23.667Z,97001
2018-01-19T20:19:52.044Z,97006
2018-01-19T20:22:20.425Z,97005
2018-01-19T20:24:48.766Z,97002
2018-01-19T20:27:17.114Z,97000
2018-01-19T20:29:45.479Z,97014
2018-01-19T20:32:21.022Z,97014
2018-01-19T20:34:49.485Z,97012
2018-01-19T20:37:18.124Z,97009
2018-01-19T20:39:46.549Z,97007
2018-01-19T20:42:14.910Z,97005
2018-01-19T20:44:43.377Z,97008
2018-01-19T20:47:11.727Z,97011
2018-01-19T20:49:40.094Z,97005
2018-01-19T20:52:08.448Z,97010
2018-01-19T20:54:37.007Z,97016
2018-01-19T20:57:05.528Z,97029
2018-01-19T20:59:34.188Z,97035
2018-01-19T21:02:02.605Z,97028
2018-01-19T21:04:31.014Z,97022
2018-01-19T21:06:59.548Z,97026
2018-01-19T21:09:27.972Z,97031
2018-01-19T21:11:56.288Z,97034
2018-01-19T21:14:24.670Z,97028
2018-01-19T21:16:53.112Z,97031
2018-01-19T21:19:21.485Z,97033
2018-01-19T21:21:49.832Z,97037
2018-01-19T21:24:18.221Z,97029
2018-01-19T21:26:46.643Z,97030
2018-01-19T21:29:15.036Z,97027
2018-01-19T21:31:43.432Z,97028
2018-01-19T21:34:11.774Z,97033
2018-01-19T21:36:40.112Z,97037
2018-01-19T21:39:08.433Z,97043
2018-01-19T21:41:36.868Z,97039
2018-01-19T21:44:05.232Z,97045
2018-01-19T21:46:33.587Z,97051
2018-01-19T21:49:01.942Z,97058
2018-01-19T21:51:30.245Z,97056
2018-01-19T21:53:58.638Z,97058
2018-01-19T21:56:27.058Z,97059
2018-01-19T21:58:55.442Z,97057
2018-01-19T22:01:23.808Z,97059
2018-01-19T22:03:52.142Z,97056
2018-01-19T22:06:20.470Z,97058
2018-01-19T22:08:48.917Z,97065
2018-01-19T22:11:17.440Z,97065
2018-01-19T22:13:45.838Z,97068
2018-01-19T22:16:14.182Z,97067
2018-01-19T22:18:42.549Z,97071
2018-01-19T22:21:10.945Z,97070
2018-01-19T22:23:39.294Z,97073
2018-01-19T22:26:07.671Z,97075
2018-01-19T22:28:36.013Z,97071
2018-01-19T22:31:04.561Z,97069
2018-01-19T22:33:33.022Z,97069
2018-01-19T22:36:01.614Z,97068
2018-01-19T22:38:30.056Z,97077
2018-01-19T22:40:58.465Z,97074
2018-01-19T22:43:26.794Z,97076
2018-01-19T22:45:55.167Z,97077
2018-01-19T22:48:23.541Z,97084
2018-01-19T22:50:51.892Z,97085
2018-01-19T22:53:20.208Z,97081
2018-01-19T22:55:48.616Z,97085
2018-01-19T22:58:17.038Z,97089
2018-01-19T23:00:45.512Z,97083
2018-01-19T23:03:13.870Z,97075
2018-01-19T23:05:43.026Z,97072
2018-01-19T23:08:11.345Z,97074
2018-01-19T23:10:39.732Z,97070
2018-01-19T23:13:08.041Z,97075
2018-01-19T23:15:36.364Z,97071
2018-01-19T23:18:04.764Z,97075
2018-01-19T23:20:33.277Z,97068
2018-01-19T23:23:01.623Z,97078
2018-01-19T23:25:30.016Z,97084
2018-01-19T23:27:58.333Z,97075
2018-01-19T23:30:26.701Z,97082
2018-01-19T23:32:55.083Z,97074
2018-01-19T23:35:23.405Z,97070
2018-01-19T23:37:51.844Z,97062
2018-01-19T23:40:20.288Z,97053
2018-01-19T23:42:48.654Z,97052
2018-01-19T23:45:16.986Z,97047
2018-01-19T23:47:45.338Z,97043
2018-01-19T23:50:13.665Z,97043
2018-01-19T23:52:42.006Z,97042
2018-01-19T23:55:10.379Z,97040
2018-01-19T23:57:38.724Z,97041
